sensor_id;sensor_type;location;lat;lon;timestamp;P1;durP1;ratioP1;P2;durP2;ratioP2
10657;SDS011;5377;43.276;26.930;2023-06-26T00:00:00;8.50;;;7.78;;
10657;SDS011;5377;43.276;26.930;2023-06-26T00:02:30;8.88;;;8.07;;
10657;SDS011;5377;43.276;26.930;2023-06-26T00:04:58;8.75;;;7.93;;
10657;SDS011;5377;43.276;26.930;2023-06-26T00:07:27;9.85;;;8.25;;
10657;SDS011;5377;43.276;26.930;2023-06-26T00:09:55;8.98;;;8.07;;
10657;SDS011;5377;43.276;26.930;2023-06-26T00:12:23;9.32;;;8.48;;
10657;SDS011;5377;43.276;26.930;2023-06-26T00:14:50;8.70;;;7.95;;
10657;SDS011;5377;43.276;26.930;2023-06-26T00:17:17;10.05;;;9.18;;
10657;SDS011;5377;43.276;26.930;2023-06-26T00:19:44;9.50;;;8.55;;
10657;SDS011;5377;43.276;26.930;2023-06-26T00:22:11;9.55;;;8.55;;
10657;SDS011;5377;43.276;26.930;2023-06-26T00:24:38;8.93;;;7.93;;
10657;SDS011;5377;43.276;26.930;2023-06-26T00:27:06;9.43;;;8.52;;
10657;SDS011;5377;43.276;26.930;2023-06-26T00:29:33;10.73;;;8.45;;
10657;SDS011;5377;43.276;26.930;2023-06-26T00:32:00;10.65;;;9.75;;
10657;SDS011;5377;43.276;26.930;2023-06-26T00:34:27;10.80;;;8.63;;
10657;SDS011;5377;43.276;26.930;2023-06-26T00:36:53;8.48;;;7.82;;
10657;SDS011;5377;43.276;26.930;2023-06-26T00:39:20;9.60;;;8.30;;
10657;SDS011;5377;43.276;26.930;2023-06-26T00:41:47;8.63;;;7.78;;
10657;SDS011;5377;43.276;26.930;2023-06-26T00:44:15;7.55;;;6.93;;
10657;SDS011;5377;43.276;26.930;2023-06-26T00:46:42;8.35;;;6.93;;
10657;SDS011;5377;43.276;26.930;2023-06-26T00:49:09;7.20;;;6.50;;
10657;SDS011;5377;43.276;26.930;2023-06-26T00:51:36;8.50;;;7.57;;
10657;SDS011;5377;43.276;26.930;2023-06-26T00:54:03;9.82;;;7.93;;
10657;SDS011;5377;43.276;26.930;2023-06-26T00:56:31;7.53;;;6.85;;
10657;SDS011;5377;43.276;26.930;2023-06-26T00:58:58;8.85;;;6.75;;
10657;SDS011;5377;43.276;26.930;2023-06-26T01:01:26;7.72;;;6.88;;
10657;SDS011;5377;43.276;26.930;2023-06-26T01:03:53;8.43;;;7.13;;
10657;SDS011;5377;43.276;26.930;2023-06-26T01:06:20;7.85;;;7.20;;
10657;SDS011;5377;43.276;26.930;2023-06-26T01:08:50;8.30;;;7.60;;
10657;SDS011;5377;43.276;26.930;2023-06-26T01:11:18;7.95;;;7.30;;
10657;SDS011;5377;43.276;26.930;2023-06-26T01:13:45;7.43;;;6.85;;
10657;SDS011;5377;43.276;26.930;2023-06-26T01:16:12;11.60;;;7.40;;
10657;SDS011;5377;43.276;26.930;2023-06-26T01:18:45;10.35;;;8.95;;
10657;SDS011;5377;43.276;26.930;2023-06-26T01:21:13;11.07;;;8.93;;
10657;SDS011;5377;43.276;26.930;2023-06-26T01:23:46;11.48;;;9.30;;
10657;SDS011;5377;43.276;26.930;2023-06-26T01:26:20;9.40;;;8.52;;
10657;SDS011;5377;43.276;26.930;2023-06-26T01:28:48;9.07;;;8.18;;
10657;SDS011;5377;43.276;26.930;2023-06-26T01:31:17;9.52;;;8.57;;
10657;SDS011;5377;43.276;26.930;2023-06-26T01:33:45;8.93;;;8.13;;
10657;SDS011;5377;43.276;26.930;2023-06-26T01:36:13;10.73;;;9.52;;
10657;SDS011;5377;43.276;26.930;2023-06-26T01:38:40;9.70;;;8.80;;
10657;SDS011;5377;43.276;26.930;2023-06-26T01:41:07;10.85;;;9.77;;
10657;SDS011;5377;43.276;26.930;2023-06-26T01:43:37;12.65;;;10.07;;
10657;SDS011;5377;43.276;26.930;2023-06-26T01:46:14;10.85;;;9.43;;
10657;SDS011;5377;43.276;26.930;2023-06-26T01:49:01;10.55;;;9.48;;
10657;SDS011;5377;43.276;26.930;2023-06-26T01:51:34;24.23;;;21.63;;
10657;SDS011;5377;43.276;26.930;2023-06-26T01:54:04;11.93;;;10.93;;
10657;SDS011;5377;43.276;26.930;2023-06-26T01:56:36;12.63;;;10.48;;
10657;SDS011;5377;43.276;26.930;2023-06-26T01:59:07;12.23;;;11.07;;
10657;SDS011;5377;43.276;26.930;2023-06-26T02:01:36;15.20;;;12.82;;
10657;SDS011;5377;43.276;26.930;2023-06-26T02:04:03;12.23;;;11.00;;
10657;SDS011;5377;43.276;26.930;2023-06-26T02:06:30;14.93;;;10.98;;
10657;SDS011;5377;43.276;26.930;2023-06-26T02:08:57;17.17;;;12.00;;
10657;SDS011;5377;43.276;26.930;2023-06-26T02:11:23;15.68;;;14.07;;
10657;SDS011;5377;43.276;26.930;2023-06-26T02:13:50;13.77;;;12.30;;
10657;SDS011;5377;43.276;26.930;2023-06-26T02:16:18;13.68;;;12.57;;
10657;SDS011;5377;43.276;26.930;2023-06-26T02:18:45;14.02;;;12.68;;
10657;SDS011;5377;43.276;26.930;2023-06-26T02:21:13;16.80;;;15.10;;
10657;SDS011;5377;43.276;26.930;2023-06-26T02:23:39;19.05;;;16.13;;
10657;SDS011;5377;43.276;26.930;2023-06-26T02:26:06;17.13;;;15.52;;
10657;SDS011;5377;43.276;26.930;2023-06-26T02:28:33;18.33;;;16.23;;
10657;SDS011;5377;43.276;26.930;2023-06-26T02:31:00;17.83;;;16.00;;
10657;SDS011;5377;43.276;26.930;2023-06-26T02:33:28;14.85;;;13.30;;
10657;SDS011;5377;43.276;26.930;2023-06-26T02:35:55;15.60;;;13.60;;
10657;SDS011;5377;43.276;26.930;2023-06-26T02:38:22;19.40;;;15.20;;
10657;SDS011;5377;43.276;26.930;2023-06-26T02:40:49;19.75;;;14.82;;
10657;SDS011;5377;43.276;26.930;2023-06-26T02:43:15;14.70;;;13.20;;
10657;SDS011;5377;43.276;26.930;2023-06-26T02:45:42;14.05;;;12.75;;
10657;SDS011;5377;43.276;26.930;2023-06-26T02:48:09;16.10;;;13.85;;
10657;SDS011;5377;43.276;26.930;2023-06-26T02:50:37;14.80;;;12.95;;
10657;SDS011;5377;43.276;26.930;2023-06-26T02:53:04;26.27;;;19.98;;
10657;SDS011;5377;43.276;26.930;2023-06-26T02:55:31;20.05;;;14.20;;
10657;SDS011;5377;43.276;26.930;2023-06-26T02:57:58;16.45;;;14.52;;
10657;SDS011;5377;43.276;26.930;2023-06-26T03:00:25;17.17;;;13.38;;
10657;SDS011;5377;43.276;26.930;2023-06-26T03:02:51;18.42;;;13.68;;
10657;SDS011;5377;43.276;26.930;2023-06-26T03:05:18;14.68;;;12.63;;
10657;SDS011;5377;43.276;26.930;2023-06-26T03:07:46;14.35;;;12.75;;
10657;SDS011;5377;43.276;26.930;2023-06-26T03:10:13;13.40;;;11.90;;
10657;SDS011;5377;43.276;26.930;2023-06-26T03:12:40;14.60;;;13.20;;
10657;SDS011;5377;43.276;26.930;2023-06-26T03:15:07;15.35;;;13.07;;
10657;SDS011;5377;43.276;26.930;2023-06-26T03:17:36;16.40;;;14.68;;
10657;SDS011;5377;43.276;26.930;2023-06-26T03:20:03;17.23;;;15.23;;
10657;SDS011;5377;43.276;26.930;2023-06-26T03:22:32;18.15;;;16.25;;
10657;SDS011;5377;43.276;26.930;2023-06-26T03:25:01;19.05;;;16.85;;
10657;SDS011;5377;43.276;26.930;2023-06-26T03:27:28;18.20;;;16.42;;
10657;SDS011;5377;43.276;26.930;2023-06-26T03:29:55;18.10;;;16.33;;
10657;SDS011;5377;43.276;26.930;2023-06-26T03:32:22;14.82;;;12.90;;
10657;SDS011;5377;43.276;26.930;2023-06-26T03:34:48;12.52;;;11.27;;
10657;SDS011;5377;43.276;26.930;2023-06-26T03:37:15;11.57;;;10.38;;
10657;SDS011;5377;43.276;26.930;2023-06-26T03:39:42;10.00;;;9.13;;
10657;SDS011;5377;43.276;26.930;2023-06-26T03:42:10;10.30;;;8.85;;
10657;SDS011;5377;43.276;26.930;2023-06-26T03:44:37;9.25;;;8.38;;
10657;SDS011;5377;43.276;26.930;2023-06-26T03:47:04;8.65;;;7.82;;
10657;SDS011;5377;43.276;26.930;2023-06-26T03:49:31;8.57;;;7.82;;
10657;SDS011;5377;43.276;26.930;2023-06-26T03:51:58;28.20;;;25.08;;
10657;SDS011;5377;43.276;26.930;2023-06-26T03:54:25;19.80;;;17.08;;
10657;SDS011;5377;43.276;26.930;2023-06-26T03:56:51;10.35;;;9.32;;
10657;SDS011;5377;43.276;26.930;2023-06-26T03:59:20;15.57;;;10.25;;
10657;SDS011;5377;43.276;26.930;2023-06-26T04:01:46;13.93;;;11.38;;
10657;SDS011;5377;43.276;26.930;2023-06-26T04:04:13;12.10;;;10.88;;
10657;SDS011;5377;43.276;26.930;2023-06-26T04:06:40;14.80;;;11.50;;
10657;SDS011;5377;43.276;26.930;2023-06-26T04:09:07;13.88;;;12.07;;
10657;SDS011;5377;43.276;26.930;2023-06-26T04:11:33;13.73;;;12.32;;
10657;SDS011;5377;43.276;26.930;2023-06-26T04:14:00;17.80;;;14.40;;
10657;SDS011;5377;43.276;26.930;2023-06-26T04:16:29;16.58;;;14.10;;
10657;SDS011;5377;43.276;26.930;2023-06-26T04:18:56;20.55;;;15.00;;
10657;SDS011;5377;43.276;26.930;2023-06-26T04:21:23;20.70;;;16.15;;
10657;SDS011;5377;43.276;26.930;2023-06-26T04:23:50;16.65;;;14.48;;
10657;SDS011;5377;43.276;26.930;2023-06-26T04:26:17;15.55;;;13.95;;
10657;SDS011;5377;43.276;26.930;2023-06-26T04:28:44;13.77;;;12.35;;
10657;SDS011;5377;43.276;26.930;2023-06-26T04:31:11;16.35;;;12.82;;
10657;SDS011;5377;43.276;26.930;2023-06-26T04:33:39;13.48;;;11.48;;
10657;SDS011;5377;43.276;26.930;2023-06-26T04:36:06;12.55;;;11.25;;
10657;SDS011;5377;43.276;26.930;2023-06-26T04:38:33;11.02;;;9.88;;
10657;SDS011;5377;43.276;26.930;2023-06-26T04:41:00;12.43;;;9.90;;
10657;SDS011;5377;43.276;26.930;2023-06-26T04:43:27;11.73;;;9.13;;
10657;SDS011;5377;43.276;26.930;2023-06-26T04:45:54;9.77;;;8.45;;
10657;SDS011;5377;43.276;26.930;2023-06-26T04:48:21;16.85;;;11.13;;
10657;SDS011;5377;43.276;26.930;2023-06-26T04:50:49;13.45;;;10.48;;
10657;SDS011;5377;43.276;26.930;2023-06-26T04:53:19;13.93;;;10.52;;
10657;SDS011;5377;43.276;26.930;2023-06-26T04:55:46;14.20;;;10.50;;
10657;SDS011;5377;43.276;26.930;2023-06-26T04:58:13;23.52;;;10.80;;
10657;SDS011;5377;43.276;26.930;2023-06-26T05:00:39;22.02;;;10.90;;
10657;SDS011;5377;43.276;26.930;2023-06-26T05:03:07;11.15;;;9.13;;
10657;SDS011;5377;43.276;26.930;2023-06-26T05:05:34;14.80;;;9.10;;
10657;SDS011;5377;43.276;26.930;2023-06-26T05:08:14;15.48;;;8.10;;
10657;SDS011;5377;43.276;26.930;2023-06-26T05:10:42;12.30;;;8.20;;
10657;SDS011;5377;43.276;26.930;2023-06-26T05:13:09;8.18;;;7.07;;
10657;SDS011;5377;43.276;26.930;2023-06-26T05:15:36;11.43;;;8.93;;
10657;SDS011;5377;43.276;26.930;2023-06-26T05:18:03;7.90;;;7.15;;
10657;SDS011;5377;43.276;26.930;2023-06-26T05:20:30;10.25;;;6.63;;
10657;SDS011;5377;43.276;26.930;2023-06-26T05:22:57;7.82;;;6.70;;
10657;SDS011;5377;43.276;26.930;2023-06-26T05:25:26;12.05;;;6.88;;
10657;SDS011;5377;43.276;26.930;2023-06-26T05:27:54;11.02;;;7.85;;
10657;SDS011;5377;43.276;26.930;2023-06-26T05:30:22;11.57;;;6.78;;
10657;SDS011;5377;43.276;26.930;2023-06-26T05:32:50;7.15;;;6.43;;
10657;SDS011;5377;43.276;26.930;2023-06-26T05:35:18;9.05;;;6.95;;
10657;SDS011;5377;43.276;26.930;2023-06-26T05:37:47;8.10;;;6.53;;
10657;SDS011;5377;43.276;26.930;2023-06-26T05:40:17;12.13;;;5.68;;
10657;SDS011;5377;43.276;26.930;2023-06-26T05:42:46;16.23;;;6.82;;
10657;SDS011;5377;43.276;26.930;2023-06-26T05:45:13;12.02;;;6.72;;
10657;SDS011;5377;43.276;26.930;2023-06-26T05:47:40;6.93;;;5.72;;
10657;SDS011;5377;43.276;26.930;2023-06-26T05:50:08;11.73;;;6.10;;
10657;SDS011;5377;43.276;26.930;2023-06-26T05:52:36;6.35;;;5.30;;
10657;SDS011;5377;43.276;26.930;2023-06-26T05:55:04;7.90;;;5.40;;
10657;SDS011;5377;43.276;26.930;2023-06-26T05:57:31;7.90;;;5.40;;
10657;SDS011;5377;43.276;26.930;2023-06-26T06:00:01;5.97;;;5.35;;
10657;SDS011;5377;43.276;26.930;2023-06-26T06:02:30;6.10;;;5.20;;
10657;SDS011;5377;43.276;26.930;2023-06-26T06:04:57;6.32;;;5.72;;
10657;SDS011;5377;43.276;26.930;2023-06-26T06:07:24;7.85;;;5.50;;
10657;SDS011;5377;43.276;26.930;2023-06-26T06:09:51;6.07;;;5.35;;
10657;SDS011;5377;43.276;26.930;2023-06-26T06:12:18;12.70;;;5.88;;
10657;SDS011;5377;43.276;26.930;2023-06-26T06:14:44;5.90;;;5.32;;
10657;SDS011;5377;43.276;26.930;2023-06-26T06:17:13;12.27;;;6.00;;
10657;SDS011;5377;43.276;26.930;2023-06-26T06:19:39;14.35;;;6.80;;
10657;SDS011;5377;43.276;26.930;2023-06-26T06:22:06;9.00;;;5.90;;
10657;SDS011;5377;43.276;26.930;2023-06-26T06:24:33;7.78;;;5.07;;
10657;SDS011;5377;43.276;26.930;2023-06-26T06:27:00;8.35;;;6.35;;
10657;SDS011;5377;43.276;26.930;2023-06-26T06:29:26;5.03;;;4.70;;
10657;SDS011;5377;43.276;26.930;2023-06-26T06:31:53;7.68;;;5.32;;
10657;SDS011;5377;43.276;26.930;2023-06-26T06:34:21;10.95;;;8.35;;
10657;SDS011;5377;43.276;26.930;2023-06-26T06:36:48;7.97;;;6.28;;
10657;SDS011;5377;43.276;26.930;2023-06-26T06:39:15;7.15;;;5.60;;
10657;SDS011;5377;43.276;26.930;2023-06-26T06:41:42;5.85;;;5.35;;
10657;SDS011;5377;43.276;26.930;2023-06-26T06:44:09;10.30;;;5.90;;
10657;SDS011;5377;43.276;26.930;2023-06-26T06:46:36;14.40;;;6.18;;
10657;SDS011;5377;43.276;26.930;2023-06-26T06:49:02;11.20;;;5.78;;
10657;SDS011;5377;43.276;26.930;2023-06-26T06:51:31;9.18;;;5.57;;
10657;SDS011;5377;43.276;26.930;2023-06-26T06:53:57;6.72;;;5.80;;
10657;SDS011;5377;43.276;26.930;2023-06-26T06:56:24;8.80;;;5.80;;
10657;SDS011;5377;43.276;26.930;2023-06-26T06:58:51;8.63;;;5.90;;
10657;SDS011;5377;43.276;26.930;2023-06-26T07:01:18;11.95;;;6.85;;
10657;SDS011;5377;43.276;26.930;2023-06-26T07:03:45;8.75;;;5.78;;
10657;SDS011;5377;43.276;26.930;2023-06-26T07:06:11;13.45;;;6.47;;
10657;SDS011;5377;43.276;26.930;2023-06-26T07:08:40;10.88;;;6.25;;
10657;SDS011;5377;43.276;26.930;2023-06-26T07:11:06;6.75;;;5.80;;
10657;SDS011;5377;43.276;26.930;2023-06-26T07:13:33;7.43;;;6.72;;
10657;SDS011;5377;43.276;26.930;2023-06-26T07:16:00;6.90;;;6.07;;
10657;SDS011;5377;43.276;26.930;2023-06-26T07:18:27;7.57;;;6.07;;
10657;SDS011;5377;43.276;26.930;2023-06-26T07:20:54;7.20;;;5.22;;
10657;SDS011;5377;43.276;26.930;2023-06-26T07:23:20;12.73;;;6.18;;
10657;SDS011;5377;43.276;26.930;2023-06-26T07:25:49;5.07;;;4.68;;
10657;SDS011;5377;43.276;26.930;2023-06-26T07:28:16;8.82;;;5.78;;
10657;SDS011;5377;43.276;26.930;2023-06-26T07:30:42;20.73;;;18.88;;
10657;SDS011;5377;43.276;26.930;2023-06-26T07:33:09;7.22;;;5.63;;
10657;SDS011;5377;43.276;26.930;2023-06-26T07:35:36;10.75;;;5.90;;
10657;SDS011;5377;43.276;26.930;2023-06-26T07:38:03;8.77;;;5.63;;
10657;SDS011;5377;43.276;26.930;2023-06-26T07:40:29;6.35;;;5.25;;
10657;SDS011;5377;43.276;26.930;2023-06-26T07:42:57;5.68;;;5.03;;
10657;SDS011;5377;43.276;26.930;2023-06-26T07:45:24;9.85;;;6.22;;
10657;SDS011;5377;43.276;26.930;2023-06-26T07:47:51;11.90;;;5.85;;
10657;SDS011;5377;43.276;26.930;2023-06-26T07:50:18;6.45;;;5.35;;
10657;SDS011;5377;43.276;26.930;2023-06-26T07:52:47;20.03;;;7.73;;
10657;SDS011;5377;43.276;26.930;2023-06-26T07:55:14;9.10;;;6.15;;
10657;SDS011;5377;43.276;26.930;2023-06-26T07:57:41;9.85;;;5.40;;
10657;SDS011;5377;43.276;26.930;2023-06-26T08:00:10;14.40;;;5.90;;
10657;SDS011;5377;43.276;26.930;2023-06-26T08:02:37;7.78;;;5.20;;
10657;SDS011;5377;43.276;26.930;2023-06-26T08:05:04;17.63;;;7.13;;
10657;SDS011;5377;43.276;26.930;2023-06-26T08:07:31;8.80;;;5.15;;
10657;SDS011;5377;43.276;26.930;2023-06-26T08:09:58;7.43;;;4.32;;
10657;SDS011;5377;43.276;26.930;2023-06-26T08:12:25;7.13;;;4.82;;
10657;SDS011;5377;43.276;26.930;2023-06-26T08:14:52;7.15;;;4.70;;
10657;SDS011;5377;43.276;26.930;2023-06-26T08:17:20;7.30;;;4.15;;
10657;SDS011;5377;43.276;26.930;2023-06-26T08:19:47;6.28;;;4.45;;
10657;SDS011;5377;43.276;26.930;2023-06-26T08:22:14;5.22;;;4.82;;
10657;SDS011;5377;43.276;26.930;2023-06-26T08:24:41;7.65;;;4.53;;
10657;SDS011;5377;43.276;26.930;2023-06-26T08:27:08;5.72;;;4.13;;
10657;SDS011;5377;43.276;26.930;2023-06-26T08:29:34;5.38;;;4.88;;
10657;SDS011;5377;43.276;26.930;2023-06-26T08:32:01;7.80;;;4.97;;
10657;SDS011;5377;43.276;26.930;2023-06-26T08:34:29;7.90;;;4.68;;
10657;SDS011;5377;43.276;26.930;2023-06-26T08:36:56;11.25;;;4.80;;
10657;SDS011;5377;43.276;26.930;2023-06-26T08:39:23;5.40;;;4.55;;
10657;SDS011;5377;43.276;26.930;2023-06-26T08:41:50;4.78;;;4.30;;
10657;SDS011;5377;43.276;26.930;2023-06-26T08:44:17;8.32;;;5.25;;
10657;SDS011;5377;43.276;26.930;2023-06-26T08:46:49;5.13;;;3.75;;
10657;SDS011;5377;43.276;26.930;2023-06-26T08:49:18;9.25;;;4.75;;
10657;SDS011;5377;43.276;26.930;2023-06-26T08:51:51;15.93;;;6.00;;
10657;SDS011;5377;43.276;26.930;2023-06-26T08:54:22;6.00;;;4.00;;
10657;SDS011;5377;43.276;26.930;2023-06-26T08:56:54;4.93;;;4.05;;
10657;SDS011;5377;43.276;26.930;2023-06-26T08:59:23;11.10;;;5.00;;
10657;SDS011;5377;43.276;26.930;2023-06-26T09:01:50;4.25;;;3.95;;
10657;SDS011;5377;43.276;26.930;2023-06-26T09:04:17;5.03;;;4.63;;
10657;SDS011;5377;43.276;26.930;2023-06-26T09:06:44;8.65;;;4.95;;
10657;SDS011;5377;43.276;26.930;2023-06-26T09:09:12;3.65;;;3.35;;
10657;SDS011;5377;43.276;26.930;2023-06-26T09:11:40;3.97;;;3.78;;
10657;SDS011;5377;43.276;26.930;2023-06-26T09:14:06;3.63;;;3.42;;
10657;SDS011;5377;43.276;26.930;2023-06-26T09:16:39;7.53;;;5.88;;
10657;SDS011;5377;43.276;26.930;2023-06-26T09:19:08;5.72;;;4.38;;
10657;SDS011;5377;43.276;26.930;2023-06-26T09:21:37;7.95;;;4.22;;
10657;SDS011;5377;43.276;26.930;2023-06-26T09:24:05;5.07;;;3.53;;
10657;SDS011;5377;43.276;26.930;2023-06-26T09:26:34;3.83;;;3.42;;
10657;SDS011;5377;43.276;26.930;2023-06-26T09:29:02;4.70;;;3.25;;
10657;SDS011;5377;43.276;26.930;2023-06-26T09:31:29;7.22;;;3.53;;
10657;SDS011;5377;43.276;26.930;2023-06-26T09:33:57;4.00;;;3.67;;
10657;SDS011;5377;43.276;26.930;2023-06-26T09:36:26;3.40;;;3.10;;
10657;SDS011;5377;43.276;26.930;2023-06-26T09:38:58;4.63;;;3.30;;
10657;SDS011;5377;43.276;26.930;2023-06-26T09:41:25;5.03;;;3.38;;
10657;SDS011;5377;43.276;26.930;2023-06-26T09:43:54;4.88;;;3.28;;
10657;SDS011;5377;43.276;26.930;2023-06-26T09:46:26;5.55;;;3.03;;
10657;SDS011;5377;43.276;26.930;2023-06-26T09:48:57;7.80;;;3.65;;
10657;SDS011;5377;43.276;26.930;2023-06-26T09:51:25;10.77;;;5.22;;
10657;SDS011;5377;43.276;26.930;2023-06-26T09:53:52;3.78;;;3.28;;
10657;SDS011;5377;43.276;26.930;2023-06-26T09:56:18;5.30;;;2.95;;
10657;SDS011;5377;43.276;26.930;2023-06-26T09:58:47;6.03;;;3.05;;
10657;SDS011;5377;43.276;26.930;2023-06-26T10:01:16;7.70;;;3.30;;
10657;SDS011;5377;43.276;26.930;2023-06-26T10:03:43;3.95;;;3.30;;
10657;SDS011;5377;43.276;26.930;2023-06-26T10:06:10;4.50;;;2.90;;
10657;SDS011;5377;43.276;26.930;2023-06-26T10:08:38;3.13;;;2.92;;
10657;SDS011;5377;43.276;26.930;2023-06-26T10:11:06;2.70;;;2.50;;
10657;SDS011;5377;43.276;26.930;2023-06-26T10:13:38;3.38;;;3.08;;
10657;SDS011;5377;43.276;26.930;2023-06-26T10:16:10;7.68;;;3.30;;
10657;SDS011;5377;43.276;26.930;2023-06-26T10:18:39;4.93;;;3.10;;
10657;SDS011;5377;43.276;26.930;2023-06-26T10:21:07;2.90;;;2.70;;
10657;SDS011;5377;43.276;26.930;2023-06-26T10:23:36;3.58;;;2.80;;
10657;SDS011;5377;43.276;26.930;2023-06-26T10:26:07;6.35;;;3.40;;
10657;SDS011;5377;43.276;26.930;2023-06-26T10:28:36;8.05;;;3.83;;
10657;SDS011;5377;43.276;26.930;2023-06-26T10:31:04;11.15;;;3.58;;
10657;SDS011;5377;43.276;26.930;2023-06-26T10:33:34;11.45;;;4.72;;
10657;SDS011;5377;43.276;26.930;2023-06-26T10:36:16;5.28;;;3.90;;
10657;SDS011;5377;43.276;26.930;2023-06-26T10:38:50;7.03;;;3.20;;
10657;SDS011;5377;43.276;26.930;2023-06-26T10:41:21;5.22;;;3.72;;
10657;SDS011;5377;43.276;26.930;2023-06-26T10:43:49;12.35;;;4.88;;
10657;SDS011;5377;43.276;26.930;2023-06-26T10:46:20;3.53;;;3.05;;
10657;SDS011;5377;43.276;26.930;2023-06-26T10:48:57;5.15;;;3.33;;
10657;SDS011;5377;43.276;26.930;2023-06-26T10:51:26;5.25;;;3.53;;
10657;SDS011;5377;43.276;26.930;2023-06-26T10:53:54;3.80;;;3.25;;
10657;SDS011;5377;43.276;26.930;2023-06-26T10:56:21;3.70;;;3.50;;
10657;SDS011;5377;43.276;26.930;2023-06-26T10:59:16;11.70;;;4.20;;
10657;SDS011;5377;43.276;26.930;2023-06-26T11:01:44;4.55;;;3.50;;
10657;SDS011;5377;43.276;26.930;2023-06-26T11:04:13;4.68;;;3.10;;
10657;SDS011;5377;43.276;26.930;2023-06-26T11:06:45;3.45;;;3.10;;
10657;SDS011;5377;43.276;26.930;2023-06-26T11:09:15;3.83;;;3.53;;
10657;SDS011;5377;43.276;26.930;2023-06-26T11:11:56;6.63;;;4.55;;
10657;SDS011;5377;43.276;26.930;2023-06-26T11:14:33;4.05;;;3.47;;
10657;SDS011;5377;43.276;26.930;2023-06-26T11:17:03;8.85;;;3.60;;
10657;SDS011;5377;43.276;26.930;2023-06-26T11:19:30;11.50;;;5.95;;
10657;SDS011;5377;43.276;26.930;2023-06-26T11:22:03;2.85;;;2.65;;
10657;SDS011;5377;43.276;26.930;2023-06-26T11:24:31;4.05;;;2.88;;
10657;SDS011;5377;43.276;26.930;2023-06-26T11:27:00;3.08;;;2.80;;
10657;SDS011;5377;43.276;26.930;2023-06-26T11:29:28;4.22;;;2.85;;
10657;SDS011;5377;43.276;26.930;2023-06-26T11:32:00;4.32;;;3.70;;
10657;SDS011;5377;43.276;26.930;2023-06-26T11:34:31;5.03;;;3.40;;
10657;SDS011;5377;43.276;26.930;2023-06-26T11:36:58;7.32;;;3.33;;
10657;SDS011;5377;43.276;26.930;2023-06-26T11:39:30;4.05;;;2.90;;
10657;SDS011;5377;43.276;26.930;2023-06-26T11:41:57;6.07;;;3.88;;
10657;SDS011;5377;43.276;26.930;2023-06-26T11:44:25;9.20;;;7.40;;
10657;SDS011;5377;43.276;26.930;2023-06-26T11:46:56;16.70;;;7.22;;
10657;SDS011;5377;43.276;26.930;2023-06-26T11:49:23;6.20;;;5.07;;
10657;SDS011;5377;43.276;26.930;2023-06-26T11:51:52;3.65;;;3.28;;
10657;SDS011;5377;43.276;26.930;2023-06-26T11:54:24;8.57;;;3.97;;
10657;SDS011;5377;43.276;26.930;2023-06-26T11:56:57;6.40;;;4.78;;
10657;SDS011;5377;43.276;26.930;2023-06-26T11:59:26;8.85;;;4.18;;
10657;SDS011;5377;43.276;26.930;2023-06-26T12:01:59;4.70;;;2.65;;
10657;SDS011;5377;43.276;26.930;2023-06-26T12:04:26;3.65;;;2.78;;
10657;SDS011;5377;43.276;26.930;2023-06-26T12:06:54;10.63;;;3.17;;
10657;SDS011;5377;43.276;26.930;2023-06-26T12:09:22;9.73;;;3.45;;
10657;SDS011;5377;43.276;26.930;2023-06-26T12:11:51;7.90;;;3.60;;
10657;SDS011;5377;43.276;26.930;2023-06-26T12:14:21;3.67;;;2.42;;
10657;SDS011;5377;43.276;26.930;2023-06-26T12:16:53;5.03;;;2.60;;
10657;SDS011;5377;43.276;26.930;2023-06-26T12:19:24;3.28;;;2.17;;
10657;SDS011;5377;43.276;26.930;2023-06-26T12:21:52;7.65;;;3.22;;
10657;SDS011;5377;43.276;26.930;2023-06-26T12:24:21;3.42;;;2.30;;
10657;SDS011;5377;43.276;26.930;2023-06-26T12:26:52;8.05;;;3.30;;
10657;SDS011;5377;43.276;26.930;2023-06-26T12:29:29;5.97;;;2.30;;
10657;SDS011;5377;43.276;26.930;2023-06-26T12:31:59;8.05;;;2.70;;
10657;SDS011;5377;43.276;26.930;2023-06-26T12:34:26;6.35;;;5.72;;
10657;SDS011;5377;43.276;26.930;2023-06-26T12:36:58;4.78;;;4.38;;
10657;SDS011;5377;43.276;26.930;2023-06-26T12:39:27;15.50;;;4.47;;
10657;SDS011;5377;43.276;26.930;2023-06-26T12:41:56;6.35;;;3.80;;
10657;SDS011;5377;43.276;26.930;2023-06-26T12:44:26;3.58;;;2.53;;
10657;SDS011;5377;43.276;26.930;2023-06-26T12:46:54;10.20;;;3.15;;
10657;SDS011;5377;43.276;26.930;2023-06-26T12:49:33;9.32;;;4.68;;
10657;SDS011;5377;43.276;26.930;2023-06-26T12:52:02;3.38;;;3.08;;
10657;SDS011;5377;43.276;26.930;2023-06-26T12:54:29;5.03;;;3.63;;
10657;SDS011;5377;43.276;26.930;2023-06-26T12:56:56;12.60;;;7.45;;
10657;SDS011;5377;43.276;26.930;2023-06-26T12:59:23;8.35;;;3.35;;
10657;SDS011;5377;43.276;26.930;2023-06-26T13:01:51;5.75;;;3.20;;
10657;SDS011;5377;43.276;26.930;2023-06-26T13:04:18;11.55;;;4.53;;
10657;SDS011;5377;43.276;26.930;2023-06-26T13:06:45;7.40;;;3.35;;
10657;SDS011;5377;43.276;26.930;2023-06-26T13:09:12;4.60;;;2.78;;
10657;SDS011;5377;43.276;26.930;2023-06-26T13:11:39;4.03;;;2.88;;
10657;SDS011;5377;43.276;26.930;2023-06-26T13:14:06;3.97;;;2.47;;
10657;SDS011;5377;43.276;26.930;2023-06-26T13:16:33;6.70;;;2.53;;
10657;SDS011;5377;43.276;26.930;2023-06-26T13:19:01;10.68;;;3.53;;
10657;SDS011;5377;43.276;26.930;2023-06-26T13:21:28;7.05;;;3.20;;
10657;SDS011;5377;43.276;26.930;2023-06-26T13:23:55;5.80;;;2.50;;
10657;SDS011;5377;43.276;26.930;2023-06-26T13:26:23;4.60;;;2.67;;
10657;SDS011;5377;43.276;26.930;2023-06-26T13:28:50;2.50;;;2.30;;
10657;SDS011;5377;43.276;26.930;2023-06-26T13:31:17;2.95;;;1.80;;
10657;SDS011;5377;43.276;26.930;2023-06-26T13:33:44;7.70;;;3.60;;
10657;SDS011;5377;43.276;26.930;2023-06-26T13:36:15;10.02;;;3.80;;
10657;SDS011;5377;43.276;26.930;2023-06-26T13:38:42;6.53;;;2.55;;
10657;SDS011;5377;43.276;26.930;2023-06-26T13:41:09;3.15;;;2.53;;
10657;SDS011;5377;43.276;26.930;2023-06-26T13:43:36;5.38;;;2.60;;
10657;SDS011;5377;43.276;26.930;2023-06-26T13:46:03;5.70;;;2.90;;
10657;SDS011;5377;43.276;26.930;2023-06-26T13:48:30;8.20;;;3.10;;
10657;SDS011;5377;43.276;26.930;2023-06-26T13:50:58;7.57;;;3.50;;
10657;SDS011;5377;43.276;26.930;2023-06-26T13:53:26;9.43;;;3.78;;
10657;SDS011;5377;43.276;26.930;2023-06-26T13:55:53;5.10;;;3.05;;
10657;SDS011;5377;43.276;26.930;2023-06-26T13:58:20;5.30;;;3.10;;
10657;SDS011;5377;43.276;26.930;2023-06-26T14:00:49;7.53;;;2.42;;
10657;SDS011;5377;43.276;26.930;2023-06-26T14:03:16;4.22;;;2.70;;
10657;SDS011;5377;43.276;26.930;2023-06-26T14:05:43;6.18;;;2.95;;
10657;SDS011;5377;43.276;26.930;2023-06-26T14:08:10;5.30;;;2.55;;
10657;SDS011;5377;43.276;26.930;2023-06-26T14:10:38;7.57;;;3.70;;
10657;SDS011;5377;43.276;26.930;2023-06-26T14:13:05;6.05;;;3.63;;
10657;SDS011;5377;43.276;26.930;2023-06-26T14:15:34;11.05;;;3.85;;
10657;SDS011;5377;43.276;26.930;2023-06-26T14:18:01;8.38;;;5.15;;
10657;SDS011;5377;43.276;26.930;2023-06-26T14:20:29;12.52;;;3.28;;
10657;SDS011;5377;43.276;26.930;2023-06-26T14:22:57;6.10;;;3.60;;
10657;SDS011;5377;43.276;26.930;2023-06-26T14:25:24;6.93;;;3.35;;
10657;SDS011;5377;43.276;26.930;2023-06-26T14:27:54;8.88;;;3.40;;
10657;SDS011;5377;43.276;26.930;2023-06-26T14:30:21;7.72;;;3.78;;
10657;SDS011;5377;43.276;26.930;2023-06-26T14:32:48;3.60;;;3.00;;
10657;SDS011;5377;43.276;26.930;2023-06-26T14:35:15;5.38;;;3.20;;
10657;SDS011;5377;43.276;26.930;2023-06-26T14:37:42;7.10;;;3.15;;
10657;SDS011;5377;43.276;26.930;2023-06-26T14:40:09;6.40;;;2.53;;
10657;SDS011;5377;43.276;26.930;2023-06-26T14:42:37;5.15;;;3.22;;
10657;SDS011;5377;43.276;26.930;2023-06-26T14:45:05;3.35;;;1.92;;